sensor_id;sensor_type;location;lat;lon;timestamp;pressure;altitude;pressure_sealevel;temperature;humidity
8059;BME280;4072;42.668;23.396;2022-10-31T00:01:23;95538.44;;;14.44;75.67
8059;BME280;4072;42.668;23.396;2022-10-31T00:03:52;95539.81;;;14.48;75.86
8059;BME280;4072;42.668;23.396;2022-10-31T00:06:23;95540.63;;;14.63;74.67
8059;BME280;4072;42.668;23.396;2022-10-31T00:08:54;95539.00;;;14.90;72.59
8059;BME280;4072;42.668;23.396;2022-10-31T00:11:23;95543.00;;;15.03;71.04
8059;BME280;4072;42.668;23.396;2022-10-31T00:13:52;95539.94;;;15.10;70.45
8059;BME280;4072;42.668;23.396;2022-10-31T00:16:21;95539.50;;;15.26;69.94
8059;BME280;4072;42.668;23.396;2022-10-31T00:18:50;95539.13;;;15.42;68.77
8059;BME280;4072;42.668;23.396;2022-10-31T00:21:19;95543.66;;;15.45;68.71
8059;BME280;4072;42.668;23.396;2022-10-31T00:23:48;95529.66;;;15.29;68.57
8059;BME280;4072;42.668;23.396;2022-10-31T00:26:18;95546.44;;;15.36;69.11
8059;BME280;4072;42.668;23.396;2022-10-31T00:28:48;95542.19;;;15.35;69.27
8059;BME280;4072;42.668;23.396;2022-10-31T00:31:16;95554.31;;;15.34;69.71
8059;BME280;4072;42.668;23.396;2022-10-31T00:33:44;95539.50;;;15.26;70.05
8059;BME280;4072;42.668;23.396;2022-10-31T00:36:14;95538.66;;;15.20;70.53
8059;BME280;4072;42.668;23.396;2022-10-31T00:38:45;95539.00;;;15.13;71.10
8059;BME280;4072;42.668;23.396;2022-10-31T00:41:15;95523.63;;;15.01;71.34
8059;BME280;4072;42.668;23.396;2022-10-31T00:43:46;95542.69;;;15.01;72.23
8059;BME280;4072;42.668;23.396;2022-10-31T00:46:15;95538.22;;;14.65;73.82
8059;BME280;4072;42.668;23.396;2022-10-31T00:48:43;95534.28;;;14.16;77.46
8059;BME280;4072;42.668;23.396;2022-10-31T00:51:11;95542.22;;;13.60;82.70
8059;BME280;4072;42.668;23.396;2022-10-31T00:53:40;95546.47;;;13.34;87.07
8059;BME280;4072;42.668;23.396;2022-10-31T00:56:09;95552.34;;;13.05;90.40
8059;BME280;4072;42.668;23.396;2022-10-31T00:58:37;95549.31;;;12.64;94.70
8059;BME280;4072;42.668;23.396;2022-10-31T01:01:07;95546.69;;;12.42;99.06
8059;BME280;4072;42.668;23.396;2022-10-31T01:03:37;95558.53;;;12.27;100.00
8059;BME280;4072;42.668;23.396;2022-10-31T01:06:08;95552.13;;;12.12;100.00
8059;BME280;4072;42.668;23.396;2022-10-31T01:08:37;95554.25;;;12.17;100.00
8059;BME280;4072;42.668;23.396;2022-10-31T01:11:08;95561.44;;;12.11;100.00
8059;BME280;4072;42.668;23.396;2022-10-31T01:13:39;95521.91;;;11.92;100.00
8059;BME280;4072;42.668;23.396;2022-10-31T01:16:11;95553.75;;;12.09;100.00
8059;BME280;4072;42.668;23.396;2022-10-31T01:18:39;95547.84;;;12.02;100.00
8059;BME280;4072;42.668;23.396;2022-10-31T01:21:09;95558.72;;;12.02;100.00
8059;BME280;4072;42.668;23.396;2022-10-31T01:23:40;95560.22;;;12.03;100.00
8059;BME280;4072;42.668;23.396;2022-10-31T01:26:12;95562.84;;;11.93;100.00
8059;BME280;4072;42.668;23.396;2022-10-31T01:28:44;95569.31;;;11.65;100.00
8059;BME280;4072;42.668;23.396;2022-10-31T01:31:17;95570.38;;;11.34;100.00
8059;BME280;4072;42.668;23.396;2022-10-31T01:33:45;95560.69;;;11.11;100.00
8059;BME280;4072;42.668;23.396;2022-10-31T01:36:16;95566.69;;;11.06;100.00
8059;BME280;4072;42.668;23.396;2022-10-31T01:38:45;95568.19;;;11.07;100.00
8059;BME280;4072;42.668;23.396;2022-10-31T01:41:16;95571.53;;;11.11;100.00
8059;BME280;4072;42.668;23.396;2022-10-31T01:43:49;95572.81;;;11.07;100.00
8059;BME280;4072;42.668;23.396;2022-10-31T01:46:22;95578.44;;;11.12;100.00
8059;BME280;4072;42.668;23.396;2022-10-31T01:48:53;95578.13;;;11.10;100.00
8059;BME280;4072;42.668;23.396;2022-10-31T01:51:26;95575.41;;;11.23;100.00
8059;BME280;4072;42.668;23.396;2022-10-31T01:54:00;95575.03;;;11.33;100.00
8059;BME280;4072;42.668;23.396;2022-10-31T01:56:35;95572.16;;;11.49;100.00
8059;BME280;4072;42.668;23.396;2022-10-31T01:59:09;95576.25;;;11.66;100.00
8059;BME280;4072;42.668;23.396;2022-10-31T02:01:40;95581.34;;;11.64;100.00
8059;BME280;4072;42.668;23.396;2022-10-31T02:04:09;95572.66;;;11.69;100.00
8059;BME280;4072;42.668;23.396;2022-10-31T02:06:40;95572.91;;;11.62;100.00
8059;BME280;4072;42.668;23.396;2022-10-31T02:09:12;95571.91;;;11.56;100.00
8059;BME280;4072;42.668;23.396;2022-10-31T02:11:42;95561.72;;;11.60;100.00
8059;BME280;4072;42.668;23.396;2022-10-31T02:14:12;95558.19;;;11.72;100.00
8059;BME280;4072;42.668;23.396;2022-10-31T02:16:42;95569.69;;;11.76;100.00
8059;BME280;4072;42.668;23.396;2022-10-31T02:19:14;95572.94;;;11.71;100.00
8059;BME280;4072;42.668;23.396;2022-10-31T02:21:51;95572.94;;;11.71;100.00
8059;BME280;4072;42.668;23.396;2022-10-31T02:24:44;95576.09;;;11.70;100.00
8059;BME280;4072;42.668;23.396;2022-10-31T02:30:14;95575.84;;;11.55;100.00
8059;BME280;4072;42.668;23.396;2022-10-31T02:33:07;95572.94;;;11.50;100.00
8059;BME280;4072;42.668;23.396;2022-10-31T02:35:49;95592.88;;;11.43;100.00
8059;BME280;4072;42.668;23.396;2022-10-31T02:38:29;95593.69;;;11.53;100.00
8059;BME280;4072;42.668;23.396;2022-10-31T02:41:02;95557.03;;;11.39;100.00
8059;BME280;4072;42.668;23.396;2022-10-31T02:43:36;95599.00;;;11.56;100.00
8059;BME280;4072;42.668;23.396;2022-10-31T02:46:10;95593.59;;;11.56;100.00
8059;BME280;4072;42.668;23.396;2022-10-31T02:48:42;95587.97;;;11.63;100.00
8059;BME280;4072;42.668;23.396;2022-10-31T02:51:13;95591.94;;;11.71;100.00
8059;BME280;4072;42.668;23.396;2022-10-31T02:53:42;95575.38;;;11.69;100.00
8059;BME280;4072;42.668;23.396;2022-10-31T02:56:12;95592.00;;;11.80;100.00
8059;BME280;4072;42.668;23.396;2022-10-31T02:58:44;95589.34;;;11.68;100.00
8059;BME280;4072;42.668;23.396;2022-10-31T03:01:33;95598.56;;;11.92;100.00
8059;BME280;4072;42.668;23.396;2022-10-31T03:04:27;95600.06;;;11.71;100.00
8059;BME280;4072;42.668;23.396;2022-10-31T03:07:01;95591.81;;;11.41;100.00
8059;BME280;4072;42.668;23.396;2022-10-31T03:09:35;95600.75;;;11.29;100.00
8059;BME280;4072;42.668;23.396;2022-10-31T03:12:08;95602.59;;;11.53;100.00
8059;BME280;4072;42.668;23.396;2022-10-31T03:14:42;95591.03;;;11.40;100.00
8059;BME280;4072;42.668;23.396;2022-10-31T03:17:15;95589.13;;;11.28;100.00
8059;BME280;4072;42.668;23.396;2022-10-31T03:19:47;95596.09;;;11.51;100.00
8059;BME280;4072;42.668;23.396;2022-10-31T03:22:19;95597.34;;;11.37;100.00
8059;BME280;4072;42.668;23.396;2022-10-31T03:24:49;95600.13;;;11.46;100.00
8059;BME280;4072;42.668;23.396;2022-10-31T03:27:21;95566.69;;;11.28;100.00
8059;BME280;4072;42.668;23.396;2022-10-31T03:29:51;95597.59;;;11.30;100.00
8059;BME280;4072;42.668;23.396;2022-10-31T03:32:23;95613.75;;;11.55;100.00
8059;BME280;4072;42.668;23.396;2022-10-31T03:34:57;95613.56;;;11.62;100.00
8059;BME280;4072;42.668;23.396;2022-10-31T03:37:27;95551.56;;;11.30;100.00
8059;BME280;4072;42.668;23.396;2022-10-31T03:39:58;95617.28;;;11.77;100.00
8059;BME280;4072;42.668;23.396;2022-10-31T03:42:30;95609.16;;;11.77;100.00
8059;BME280;4072;42.668;23.396;2022-10-31T03:45:03;95605.63;;;11.68;100.00
8059;BME280;4072;42.668;23.396;2022-10-31T03:47:33;95620.69;;;11.56;100.00
8059;BME280;4072;42.668;23.396;2022-10-31T03:50:06;95618.84;;;11.66;100.00
8059;BME280;4072;42.668;23.396;2022-10-31T03:52:39;95615.19;;;11.81;100.00
8059;BME280;4072;42.668;23.396;2022-10-31T03:55:14;95613.94;;;11.73;100.00
8059;BME280;4072;42.668;23.396;2022-10-31T03:57:51;95618.34;;;11.80;100.00
8059;BME280;4072;42.668;23.396;2022-10-31T04:00:21;95625.28;;;11.81;100.00
8059;BME280;4072;42.668;23.396;2022-10-31T04:02:55;95582.00;;;11.56;100.00
8059;BME280;4072;42.668;23.396;2022-10-31T04:05:29;95641.53;;;11.81;100.00
8059;BME280;4072;42.668;23.396;2022-10-31T04:08:01;95638.00;;;11.71;100.00
8059;BME280;4072;42.668;23.396;2022-10-31T04:10:32;95640.03;;;11.80;100.00
8059;BME280;4072;42.668;23.396;2022-10-31T04:13:06;95641.53;;;11.81;100.00
8059;BME280;4072;42.668;23.396;2022-10-31T04:15:37;95642.31;;;11.81;100.00
8059;BME280;4072;42.668;23.396;2022-10-31T04:18:07;95644.06;;;11.75;100.00
8059;BME280;4072;42.668;23.396;2022-10-31T04:20:39;95624.41;;;11.62;100.00
8059;BME280;4072;42.668;23.396;2022-10-31T04:23:15;95621.97;;;11.64;100.00
8059;BME280;4072;42.668;23.396;2022-10-31T04:25:45;95635.66;;;11.61;100.00
8059;BME280;4072;42.668;23.396;2022-10-31T04:28:14;95630.66;;;11.59;100.00
8059;BME280;4072;42.668;23.396;2022-10-31T04:30:42;95628.66;;;11.72;100.00
8059;BME280;4072;42.668;23.396;2022-10-31T04:33:11;95643.19;;;11.78;100.00
8059;BME280;4072;42.668;23.396;2022-10-31T04:35:40;95639.50;;;11.72;100.00
8059;BME280;4072;42.668;23.396;2022-10-31T04:38:09;95645.50;;;11.67;100.00
8059;BME280;4072;42.668;23.396;2022-10-31T04:40:37;95644.19;;;11.93;100.00
8059;BME280;4072;42.668;23.396;2022-10-31T04:43:05;95652.22;;;11.97;100.00
8059;BME280;4072;42.668;23.396;2022-10-31T04:45:35;95642.44;;;11.78;100.00
8059;BME280;4072;42.668;23.396;2022-10-31T04:48:04;95646.84;;;11.84;100.00
8059;BME280;4072;42.668;23.396;2022-10-31T04:50:33;95664.00;;;11.81;100.00
8059;BME280;4072;42.668;23.396;2022-10-31T04:53:03;95662.53;;;11.89;100.00
8059;BME280;4072;42.668;23.396;2022-10-31T04:55:31;95659.81;;;11.89;100.00
8059;BME280;4072;42.668;23.396;2022-10-31T04:58:00;95637.38;;;11.67;100.00
8059;BME280;4072;42.668;23.396;2022-10-31T05:00:29;95641.97;;;11.45;100.00
8059;BME280;4072;42.668;23.396;2022-10-31T05:02:58;95656.22;;;11.71;100.00
8059;BME280;4072;42.668;23.396;2022-10-31T05:05:29;95661.03;;;11.88;100.00
8059;BME280;4072;42.668;23.396;2022-10-31T05:07:57;95654.72;;;11.92;100.00
8059;BME280;4072;42.668;23.396;2022-10-31T05:10:29;95586.91;;;11.48;100.00
8059;BME280;4072;42.668;23.396;2022-10-31T05:12:59;95647.47;;;11.88;100.00
8059;BME280;4072;42.668;23.396;2022-10-31T05:15:29;95678.78;;;12.24;100.00
8059;BME280;4072;42.668;23.396;2022-10-31T05:17:59;95681.47;;;12.24;100.00
8059;BME280;4072;42.668;23.396;2022-10-31T05:20:30;95681.78;;;12.26;100.00
8059;BME280;4072;42.668;23.396;2022-10-31T05:22:59;95674.56;;;12.23;100.00
8059;BME280;4072;42.668;23.396;2022-10-31T05:25:29;95679.66;;;12.21;100.00
8059;BME280;4072;42.668;23.396;2022-10-31T05:27:57;95689.00;;;12.20;100.00
8059;BME280;4072;42.668;23.396;2022-10-31T05:30:27;95631.06;;;11.70;100.00
8059;BME280;4072;42.668;23.396;2022-10-31T05:32:56;95686.28;;;12.20;100.00
8059;BME280;4072;42.668;23.396;2022-10-31T05:35:26;95687.75;;;12.12;100.00
8059;BME280;4072;42.668;23.396;2022-10-31T05:37:55;95686.19;;;12.11;100.00
8059;BME280;4072;42.668;23.396;2022-10-31T05:40:25;95677.78;;;11.74;100.00
8059;BME280;4072;42.668;23.396;2022-10-31T05:42:57;95703.16;;;12.02;100.00
8059;BME280;4072;42.668;23.396;2022-10-31T05:45:28;95679.84;;;11.70;100.00
8059;BME280;4072;42.668;23.396;2022-10-31T05:47:57;95637.78;;;11.32;100.00
8059;BME280;4072;42.668;23.396;2022-10-31T05:50:31;95703.69;;;11.75;100.00
8059;BME280;4072;42.668;23.396;2022-10-31T05:53:00;95635.16;;;11.41;100.00
8059;BME280;4072;42.668;23.396;2022-10-31T05:55:30;95691.09;;;11.81;100.00
8059;BME280;4072;42.668;23.396;2022-10-31T05:58:00;95707.84;;;12.02;100.00
8059;BME280;4072;42.668;23.396;2022-10-31T06:00:29;95702.84;;;12.00;100.00
8059;BME280;4072;42.668;23.396;2022-10-31T06:02:58;95712.69;;;12.07;100.00
8059;BME280;4072;42.668;23.396;2022-10-31T06:05:27;95717.88;;;12.14;100.00
8059;BME280;4072;42.668;23.396;2022-10-31T06:07:57;95728.59;;;12.17;100.00
8059;BME280;4072;42.668;23.396;2022-10-31T06:10:26;95725.84;;;12.30;100.00
8059;BME280;4072;42.668;23.396;2022-10-31T06:12:54;95731.91;;;12.34;100.00
8059;BME280;4072;42.668;23.396;2022-10-31T06:15:24;95732.00;;;12.30;100.00
8059;BME280;4072;42.668;23.396;2022-10-31T06:18:00;95719.75;;;12.26;100.00
8059;BME280;4072;42.668;23.396;2022-10-31T06:20:30;95733.41;;;12.35;100.00
8059;BME280;4072;42.668;23.396;2022-10-31T06:22:58;95729.91;;;12.34;100.00
8059;BME280;4072;42.668;23.396;2022-10-31T06:25:27;95669.78;;;11.93;100.00
8059;BME280;4072;42.668;23.396;2022-10-31T06:27:57;95726.03;;;12.35;100.00
8059;BME280;4072;42.668;23.396;2022-10-31T06:30:27;95734.16;;;12.57;100.00
8059;BME280;4072;42.668;23.396;2022-10-31T06:33:01;95740.59;;;12.72;100.00
8059;BME280;4072;42.668;23.396;2022-10-31T06:35:31;95728.97;;;12.71;100.00
8059;BME280;4072;42.668;23.396;2022-10-31T06:38:00;95732.47;;;12.72;100.00
8059;BME280;4072;42.668;23.396;2022-10-31T06:40:28;95750.19;;;13.16;100.00
8059;BME280;4072;42.668;23.396;2022-10-31T06:42:59;95753.09;;;13.21;100.00
8059;BME280;4072;42.668;23.396;2022-10-31T06:45:30;95746.94;;;13.30;100.00
8059;BME280;4072;42.668;23.396;2022-10-31T06:47:59;95741.84;;;13.41;100.00
8059;BME280;4072;42.668;23.396;2022-10-31T06:50:44;95750.66;;;13.63;100.00
8059;BME280;4072;42.668;23.396;2022-10-31T06:53:13;95752.19;;;13.73;100.00
8059;BME280;4072;42.668;23.396;2022-10-31T06:55:42;95742.53;;;13.81;100.00
8059;BME280;4072;42.668;23.396;2022-10-31T06:58:11;95727.16;;;13.78;100.00
8059;BME280;4072;42.668;23.396;2022-10-31T07:00:44;95754.38;;;13.96;100.00
8059;BME280;4072;42.668;23.396;2022-10-31T07:03:13;95752.84;;;13.95;100.00
8059;BME280;4072;42.668;23.396;2022-10-31T07:05:43;95750.75;;;14.08;100.00
8059;BME280;4072;42.668;23.396;2022-10-31T07:08:13;95755.88;;;14.15;100.00
8059;BME280;4072;42.668;23.396;2022-10-31T07:10:43;95711.44;;;13.82;100.00
8059;BME280;4072;42.668;23.396;2022-10-31T07:13:18;95749.25;;;14.07;100.00
8059;BME280;4072;42.668;23.396;2022-10-31T07:15:49;95738.81;;;14.05;100.00
8059;BME280;4072;42.668;23.396;2022-10-31T07:18:18;95742.91;;;14.10;100.00
8059;BME280;4072;42.668;23.396;2022-10-31T07:20:47;95736.88;;;14.24;100.00
8059;BME280;4072;42.668;23.396;2022-10-31T07:23:16;95732.78;;;14.46;100.00
8059;BME280;4072;42.668;23.396;2022-10-31T07:25:44;95736.81;;;14.78;100.00
8059;BME280;4072;42.668;23.396;2022-10-31T07:28:12;95714.44;;;14.74;100.00
8059;BME280;4072;42.668;23.396;2022-10-31T07:30:42;95723.63;;;14.95;100.00
8059;BME280;4072;42.668;23.396;2022-10-31T07:34:35;95735.91;;;14.81;100.00
8059;BME280;4072;42.668;23.396;2022-10-31T07:37:13;95735.91;;;14.72;100.00
8059;BME280;4072;42.668;23.396;2022-10-31T07:39:41;95735.19;;;14.72;100.00
8059;BME280;4072;42.668;23.396;2022-10-31T07:42:09;95738.97;;;14.65;100.00
8059;BME280;4072;42.668;23.396;2022-10-31T07:44:37;95729.59;;;14.48;100.00
8059;BME280;4072;42.668;23.396;2022-10-31T07:47:06;95735.22;;;14.44;100.00
8059;BME280;4072;42.668;23.396;2022-10-31T07:49:36;95735.03;;;14.48;100.00
8059;BME280;4072;42.668;23.396;2022-10-31T07:52:04;95704.50;;;14.44;100.00
8059;BME280;4072;42.668;23.396;2022-10-31T07:54:33;95728.34;;;14.76;100.00
8059;BME280;4072;42.668;23.396;2022-10-31T07:57:01;95743.78;;;14.88;100.00
8059;BME280;4072;42.668;23.396;2022-10-31T07:59:29;95731.97;;;14.82;100.00
8059;BME280;4072;42.668;23.396;2022-10-31T08:03:09;95729.44;;;15.20;100.00
8059;BME280;4072;42.668;23.396;2022-10-31T08:05:39;95704.53;;;15.04;99.85
8059;BME280;4072;42.668;23.396;2022-10-31T08:08:08;95731.19;;;15.32;99.15
8059;BME280;4072;42.668;23.396;2022-10-31T08:10:37;95734.44;;;15.54;96.38
8059;BME280;4072;42.668;23.396;2022-10-31T08:13:09;95735.09;;;15.49;96.18
8059;BME280;4072;42.668;23.396;2022-10-31T08:15:38;95721.91;;;15.48;96.21
8059;BME280;4072;42.668;23.396;2022-10-31T08:18:13;95723.31;;;15.67;95.37
8059;BME280;4072;42.668;23.396;2022-10-31T08:20:42;95727.13;;;15.69;94.13
8059;BME280;4072;42.668;23.396;2022-10-31T08:23:12;95744.88;;;15.88;94.42
8059;BME280;4072;42.668;23.396;2022-10-31T08:25:41;95724.53;;;16.13;91.44
8059;BME280;4072;42.668;23.396;2022-10-31T08:28:11;95736.38;;;16.33;89.85
8059;BME280;4072;42.668;23.396;2022-10-31T08:30:41;95743.16;;;16.61;88.19
8059;BME280;4072;42.668;23.396;2022-10-31T08:33:12;95730.03;;;16.80;84.89
8059;BME280;4072;42.668;23.396;2022-10-31T08:35:42;95730.16;;;17.14;82.29
8059;BME280;4072;42.668;23.396;2022-10-31T08:38:12;95732.94;;;17.34;79.96
8059;BME280;4072;42.668;23.396;2022-10-31T08:40:41;95721.31;;;17.54;78.73
8059;BME280;4072;42.668;23.396;2022-10-31T08:43:12;95714.50;;;17.64;76.86
8059;BME280;4072;42.668;23.396;2022-10-31T08:45:41;95722.25;;;17.66;76.58
8059;BME280;4072;42.668;23.396;2022-10-31T08:48:12;95722.47;;;17.48;77.31
8059;BME280;4072;42.668;23.396;2022-10-31T08:50:41;95725.25;;;17.68;76.67
8059;BME280;4072;42.668;23.396;2022-10-31T08:53:11;95734.47;;;17.85;75.93
8059;BME280;4072;42.668;23.396;2022-10-31T08:55:41;95710.28;;;18.03;74.48
8059;BME280;4072;42.668;23.396;2022-10-31T08:58:11;95727.56;;;18.09;73.28
8059;BME280;4072;42.668;23.396;2022-10-31T09:00:40;95721.59;;;18.11;73.57
8059;BME280;4072;42.668;23.396;2022-10-31T09:03:12;95719.81;;;18.08;73.68
8059;BME280;4072;42.668;23.396;2022-10-31T09:05:41;95682.31;;;17.94;73.91
8059;BME280;4072;42.668;23.396;2022-10-31T09:08:11;95711.59;;;18.28;73.35
8059;BME280;4072;42.668;23.396;2022-10-31T09:10:42;95720.22;;;18.41;72.83
8059;BME280;4072;42.668;23.396;2022-10-31T09:13:12;95709.94;;;18.56;70.94
8059;BME280;4072;42.668;23.396;2022-10-31T09:15:43;95716.41;;;18.78;70.70
8059;BME280;4072;42.668;23.396;2022-10-31T09:18:16;95708.66;;;19.08;68.20
8059;BME280;4072;42.668;23.396;2022-10-31T09:20:46;95711.50;;;19.19;66.42
8059;BME280;4072;42.668;23.396;2022-10-31T09:23:16;95694.22;;;19.07;66.56
8059;BME280;4072;42.668;23.396;2022-10-31T09:25:46;95708.91;;;19.30;66.88
8059;BME280;4072;42.668;23.396;2022-10-31T09:28:18;95694.81;;;19.48;65.19
8059;BME280;4072;42.668;23.396;2022-10-31T09:30:47;95715.22;;;19.47;64.41
8059;BME280;4072;42.668;23.396;2022-10-31T09:33:18;95690.09;;;19.23;64.82
8059;BME280;4072;42.668;23.396;2022-10-31T09:35:48;95715.19;;;19.41;64.77
8059;BME280;4072;42.668;23.396;2022-10-31T09:38:17;95715.84;;;19.62;64.06
8059;BME280;4072;42.668;23.396;2022-10-31T09:40:49;95702.94;;;19.79;63.30
8059;BME280;4072;42.668;23.396;2022-10-31T09:43:25;95707.97;;;19.86;63.00
8059;BME280;4072;42.668;23.396;2022-10-31T09:46:01;95708.56;;;20.01;61.52
8059;BME280;4072;42.668;23.396;2022-10-31T09:48:49;95701.28;;;19.92;61.54
8059;BME280;4072;42.668;23.396;2022-10-31T09:51:25;95694.38;;;20.08;60.78
8059;BME280;4072;42.668;23.396;2022-10-31T09:54:00;95699.44;;;20.21;60.05
8059;BME280;4072;42.668;23.396;2022-10-31T09:56:32;95704.97;;;20.26;59.99
8059;BME280;4072;42.668;23.396;2022-10-31T09:59:03;95693.75;;;20.35;59.37
8059;BME280;4072;42.668;23.396;2022-10-31T10:01:39;95695.50;;;20.44;59.08
8059;BME280;4072;42.668;23.396;2022-10-31T10:07:12;95685.13;;;20.92;57.55
8059;BME280;4072;42.668;23.396;2022-10-31T10:09:45;95685.41;;;21.21;56.05
8059;BME280;4072;42.668;23.396;2022-10-31T10:12:19;95681.63;;;21.52;54.66
8059;BME280;4072;42.668;23.396;2022-10-31T10:15:04;95675.28;;;21.95;53.67
8059;BME280;4072;42.668;23.396;2022-10-31T10:17:49;95659.94;;;22.05;52.37
8059;BME280;4072;42.668;23.396;2022-10-31T10:20:28;95663.94;;;22.10;51.55
8059;BME280;4072;42.668;23.396;2022-10-31T10:23:15;95670.28;;;22.51;50.88
8059;BME280;4072;42.668;23.396;2022-10-31T10:25:52;95656.63;;;22.75;49.50
8059;BME280;4072;42.668;23.396;2022-10-31T10:28:29;95656.53;;;22.86;48.35
8059;BME280;4072;42.668;23.396;2022-10-31T10:31:07;95659.97;;;22.98;48.13
8059;BME280;4072;42.668;23.396;2022-10-31T10:33:42;95645.13;;;23.01;47.93
8059;BME280;4072;42.668;23.396;2022-10-31T10:36:15;95653.25;;;23.23;47.33
8059;BME280;4072;42.668;23.396;2022-10-31T10:38:49;95652.34;;;23.39;46.89
8059;BME280;4072;42.668;23.396;2022-10-31T10:41:20;95632.81;;;23.37;46.47
8059;BME280;4072;42.668;23.396;2022-10-31T10:43:49;95628.00;;;23.37;45.93
8059;BME280;4072;42.668;23.396;2022-10-31T10:46:19;95640.16;;;23.53;45.32
8059;BME280;4072;42.668;23.396;2022-10-31T10:49:16;95640.97;;;23.48;45.56
8059;BME280;4072;42.668;23.396;2022-10-31T10:51:47;95632.13;;;23.55;44.88
8059;BME280;4072;42.668;23.396;2022-10-31T10:54:56;95638.09;;;23.59;45.31
8059;BME280;4072;42.668;23.396;2022-10-31T10:57:40;95632.56;;;23.83;44.41
8059;BME280;4072;42.668;23.396;2022-10-31T11:00:18;95633.81;;;23.82;44.25
8059;BME280;4072;42.668;23.396;2022-10-31T11:02:47;95626.22;;;23.88;44.10
8059;BME280;4072;42.668;23.396;2022-10-31T11:05:33;95622.75;;;23.63;44.75
8059;BME280;4072;42.668;23.396;2022-10-31T11:08:04;95620.00;;;23.82;44.25
8059;BME280;4072;42.668;23.396;2022-10-31T11:10:34;95611.50;;;23.56;43.63
8059;BME280;4072;42.668;23.396;2022-10-31T11:13:14;95617.38;;;23.47;43.42
8059;BME280;4072;42.668;23.396;2022-10-31T11:15:51;95621.66;;;23.48;43.29
8059;BME280;4072;42.668;23.396;2022-10-31T11:18:24;95608.69;;;23.37;43.73
8059;BME280;4072;42.668;23.396;2022-10-31T11:20:54;95615.88;;;23.70;43.28
8059;BME280;4072;42.668;23.396;2022-10-31T11:23:24;95612.75;;;23.79;42.75
8059;BME280;4072;42.668;23.396;2022-10-31T11:25:57;95599.00;;;23.73;42.53
8059;BME280;4072;42.668;23.396;2022-10-31T11:28:27;95596.09;;;23.66;42.81
8059;BME280;4072;42.668;23.396;2022-10-31T11:31:00;95597.22;;;23.76;42.76
8059;BME280;4072;42.668;23.396;2022-10-31T11:33:34;95596.66;;;23.83;41.99
8059;BME280;4072;42.668;23.396;2022-10-31T11:36:14;95593.19;;;23.77;43.11
8059;BME280;4072;42.668;23.396;2022-10-31T11:38:44;95597.28;;;23.94;42.82
8059;BME280;4072;42.668;23.396;2022-10-31T11:41:16;95582.66;;;23.99;41.42
8059;BME280;4072;42.668;23.396;2022-10-31T11:43:49;95591.47;;;23.98;41.48
8059;BME280;4072;42.668;23.396;2022-10-31T11:46:22;95580.25;;;24.09;41.57
8059;BME280;4072;42.668;23.396;2022-10-31T11:48:55;95548.84;;;23.88;42.39
8059;BME280;4072;42.668;23.396;2022-10-31T11:51:27;95569.47;;;24.05;43.16
8059;BME280;4072;42.668;23.396;2022-10-31T11:53:58;95577.78;;;24.05;41.61
8059;BME280;4072;42.668;23.396;2022-10-31T11:56:42;95530.88;;;24.00;40.94
8059;BME280;4072;42.668;23.396;2022-10-31T11:59:20;95574.72;;;24.27;40.61
8059;BME280;4072;42.668;23.396;2022-10-31T12:01:52;95567.84;;;24.15;40.88
8059;BME280;4072;42.668;23.396;2022-10-31T12:04:30;95570.53;;;24.21;40.72
8059;BME280;4072;42.668;23.396;2022-10-31T12:07:00;95570.38;;;24.32;40.37
8059;BME280;4072;42.668;23.396;2022-10-31T12:09:32;95571.44;;;24.29;40.78
8059;BME280;4072;42.668;23.396;2022-10-31T12:12:39;95538.25;;;24.29;40.48
8059;BME280;4072;42.668;23.396;2022-10-31T12:15:29;95567.25;;;24.41;39.89
8059;BME280;4072;42.668;23.396;2022-10-31T12:18:28;95561.78;;;24.35;39.84
8059;BME280;4072;42.668;23.396;2022-10-31T12:21:13;95570.16;;;24.30;40.15
8059;BME280;4072;42.668;23.396;2022-10-31T12:23:52;95525.34;;;24.00;41.00
8059;BME280;4072;42.668;23.396;2022-10-31T12:26:27;95553.72;;;24.37;40.08
8059;BME280;4072;42.668;23.396;2022-10-31T12:29:15;95570.50;;;24.58;40.12
8059;BME280;4072;42.668;23.396;2022-10-31T12:31:57;95567.69;;;24.63;39.14
8059;BME280;4072;42.668;23.396;2022-10-31T12:34:49;95564.09;;;24.50;39.26
8059;BME280;4072;42.668;23.396;2022-10-31T12:37:31;95556.50;;;24.37;39.53
8059;BME280;4072;42.668;23.396;2022-10-31T12:40:19;95561.25;;;24.37;39.92
8059;BME280;4072;42.668;23.396;2022-10-31T12:43:06;95555.47;;;24.22;39.73
8059;BME280;4072;42.668;23.396;2022-10-31T12:45:52;95562.91;;;24.27;41.07
8059;BME280;4072;42.668;23.396;2022-10-31T12:48:53;95562.72;;;24.56;39.26
8059;BME280;4072;42.668;23.396;2022-10-31T12:51:38;95561.16;;;24.61;39.30
8059;BME280;4072;42.668;23.396;2022-10-31T12:54:18;95568.44;;;24.64;39.09
8059;BME280;4072;42.668;23.396;2022-10-31T12:56:56;95518.50;;;24.38;38.90
8059;BME280;4072;42.668;23.396;2022-10-31T12:59:32;95566.47;;;24.59;38.98
8059;BME280;4072;42.668;23.396;2022-10-31T13:02:12;95524.38;;;24.16;39.59
8059;BME280;4072;42.668;23.396;2022-10-31T13:04:47;95567.06;;;24.52;39.01
8059;BME280;4072;42.668;23.396;2022-10-31T13:07:27;95561.41;;;24.44;39.38
8059;BME280;4072;42.668;23.396;2022-10-31T13:10:01;95547.44;;;24.37;40.26
8059;BME280;4072;42.668;23.396;2022-10-31T13:12:34;95529.38;;;24.36;39.53
8059;BME280;4072;42.668;23.396;2022-10-31T13:15:11;95554.63;;;24.77;38.92
8059;BME280;4072;42.668;23.396;2022-10-31T13:17:45;95560.16;;;24.77;38.59
8059;BME280;4072;42.668;23.396;2022-10-31T13:20:20;95572.28;;;24.74;38.79
8059;BME280;4072;42.668;23.396;2022-10-31T13:22:53;95570.41;;;24.82;38.78
8059;BME280;4072;42.668;23.396;2022-10-31T13:25:24;95559.09;;;24.80;38.89
8059;BME280;4072;42.668;23.396;2022-10-31T13:27:58;95557.38;;;24.64;38.63
8059;BME280;4072;42.668;23.396;2022-10-31T13:30:29;95567.94;;;24.60;38.93
8059;BME280;4072;42.668;23.396;2022-10-31T13:33:03;95567.06;;;24.52;38.92
8059;BME280;4072;42.668;23.396;2022-10-31T13:35:41;95561.25;;;24.37;39.42
8059;BME280;4072;42.668;23.396;2022-10-31T13:38:19;95560.22;;;24.40;38.94
8059;BME280;4072;42.668;23.396;2022-10-31T13:40:53;95557.97;;;24.38;39.04
8059;BME280;4072;42.668;23.396;2022-10-31T13:43:31;95567.47;;;24.43;39.13